Country
Station

 

Weather  for  Aeropuerto Jose Marti, Rancho-Boyeros, Habana  -  Cuba    Cuba

  
22 °C (72 °F)
    
 
 

Current METAR for Aeropuerto Jose Marti, Rancho-Boyeros, Habana is :

MUHA 111855Z 01013KT 9000 BKN035 22/13 Q1022

 

This is a report for Aeropuerto Jose Marti, Rancho-Boyeros, Habana - Cuba.
 
The report was made 33 minutes ago, at 18:55 UTC .
The wind was blowing at a speed of 6.7 meters per second (15.0 miles per hour) from north (010°).
 
The temperature was 22 °C (72 °F), with a dew-point at 13 °C (55 °F).
The temperature felt like 24 °C (76 °F).
 
The atmospheric pressure was 1022 hPa (30.18 inHg).
The relative humidity was 56.7%.
 
There were broken clouds at a height of 1067 meters (3500 feet).
 
The overall visibility was 9.0 kilometers (5.6 miles).
 

 
 
 
 

Country :   A   B   C   D   E   F   G   H   I   J   K   L   M   N   O   P   Q   R   S   T   U   V   W   Y   Z

 

Site Info  |  Disclaimer  |  Credits  |  Privacy
Contact us  |  Add to favorites
© 2013-2018 METARs - All rights reserved